Illizi, Algeria
Current Conditions -  °F | °C
As of 9:00 AM on Monday 24 Nov 2014 (Local Time) from DAAP Reporting Station
Clear Clear  
Wind Chill: 64°   Ceiling: Unl
Heat Index: 64°   Visibility: 6mi
Dew Point: 32°   Wind: 16mph
Humidity: 30%   Direction: 90°E
Pressure: 30.15"   Gusts: NA
Location:  26.5°N, 8.42°E
Report Text: DAAP 240800Z 09014KT CAVOK 18/00 Q1021
Loading
Personal Weather Stations






























Interactive Weather Map New forecast layout! Learn more

10-Day Weather Forecast

Advertisements
Track Severe Weather on mobile